Main page
METAR-TAF:

METAR-TAF

Airports :

Volgograd International Airport

Volgograd, Russia

latitude: 48-47N, longitude: 044-22E, elevation: 145 m

Current weather observation

The report was made 20 minutes ago, at 21:00 UTC
Wind 8 kt from the Southeast
Temperature 4°C
Humidity 48%
Pressure 1025 hPa
Visibility 10 km or more
no clouds below 1500 m and no cumulonimbus

METAR: URWW 202100Z 13004MPS CAVOK 04/M06 Q1025 R06/010070 NOSIG

Time: 00:20 (21:20 UTC)

Forecast

The report was made 1 hour and 23 minutes ago, at 19:57 UTC
Forecast valid from 20 at 21 UTC to 21 at 06 UTC
Wind 6 kt from the East/Southeast with gusts up to 16 kt
Visibility 10 km or more
no clouds below 1500 m and no cumulonimbus
Temporary
from 20 at 21 UTC to 21 at 03 UTC
Wind 6 kt from the Northeast with gusts up to 16 kt
Temporary
from 21 at 03 UTC to 21 at 06 UTC
Wind 6 kt from the East with gusts up to 16 kt

TAF: URWW 201957Z 2021/2106 12003G08MPS CAVOK TEMPO 2021/2103 04003G08MPS TEMPO 2103/2106 08003G08MPS

Weather observations and forecasts of more than 4000 airports (METAR and TAF reports).

The available stations are represented by yellow and red dots on the map.

Hover mouse over dot to see the name of the station.

Then click to see weather observations and forecasts.

To change the map : click on the green buttons with a black cross to zoom in, on the green button with a dash to zoom out, or on the green arrows for adjacent maps.


METAR-TAF: